Time;durP1;ratioP1;P1;durP2;ratioP2;P2;SDS_P1;SDS_P2;PMS_P1;PMS_P2;Temp;Humidity;BMP_temperature;BMP_pressure;BME280_temperature;BME280_humidity;BME280_pressure;Samples;Min_cycle;Max_cycle;Signal;HPM_P1;HPM_P2
2023/12/17 00:00:17;;;;;;;;;;;;;;;8.22;92.98;102871.22;4191208;28;20011;-68
2023/12/17 00:02:20;;;;;;;;;;;;;;;8.21;93.08;102878.44;4192562;28;20019;-68
2023/12/17 00:04:22;;;;;;;;;;;;;;;8.20;93.00;102881.25;4191910;28;19936;-68
2023/12/17 00:06:24;;;;;;;;;;;;;;;8.22;93.00;102892.75;4192429;28;20040;-68
2023/12/17 00:08:25;;;;;;;;;;;;;;;8.21;93.31;102889.22;4190575;28;20032;-68
2023/12/17 00:10:27;;;;;;;;;;;;;;;8.22;93.03;102899.00;4190802;28;19985;-68
2023/12/17 00:12:29;;;;;;;;;;;;;;;8.22;93.26;102885.53;4190634;28;20012;-68
2023/12/17 00:14:31;;;;;;;;;;;;;;;8.22;93.22;102903.53;4189770;28;20047;-68
2023/12/17 00:16:33;;;;;;;;;;;;;;;8.23;92.95;102898.03;4193535;28;20392;-68
2023/12/17 00:18:36;;;;;;;;;;;;;;;8.23;93.35;102897.19;4191279;28;20027;-68
2023/12/17 00:20:37;;;;;;;;;;;;;;;8.22;93.26;102901.69;4193288;28;20032;-68
2023/12/17 00:22:39;;;;;;;;;;;;;;;8.22;93.11;102903.53;4193486;28;19928;-68
2023/12/17 00:24:40;;;;;;;;;;;;;;;8.22;93.02;102892.75;4194413;28;19975;-68
2023/12/17 00:26:42;;;;;;;;;;;;;;;8.22;93.21;102892.75;4194368;28;19925;-68
2023/12/17 00:28:44;;;;;;;;;;;;;;;8.23;93.03;102894.50;4193463;28;20015;-68
2023/12/17 00:30:46;;;;;;;;;;;;;;;8.22;93.03;102890.91;4194213;28;20031;-69
2023/12/17 00:32:48;;;;;;;;;;;;;;;8.24;92.81;102888.09;4194620;28;20023;-68
2023/12/17 00:34:50;;;;;;;;;;;;;;;8.23;93.11;102887.25;4194171;28;20015;-69
2023/12/17 00:36:52;;;;;;;;;;;;;;;8.23;93.01;102892.66;4194209;28;20027;-69
2023/12/17 00:38:55;;;;;;;;;;;;;;;8.24;93.22;102883.56;4193691;28;20028;-69
2023/12/17 00:40:56;;;;;;;;;;;;;;;8.24;92.91;102880.88;4194482;28;20023;-68
2023/12/17 00:42:58;;;;;;;;;;;;;;;8.24;93.33;102877.34;4192729;28;20020;-68
2023/12/17 00:44:59;;;;;;;;;;;;;;;8.25;93.00;102884.47;4192759;28;19928;-68
2023/12/17 00:47:02;;;;;;;;;;;;;;;8.25;93.24;102866.47;4194459;28;20003;-68
2023/12/17 00:49:04;;;;;;;;;;;;;;;8.25;93.28;102858.38;4194573;28;20477;-68
2023/12/17 00:51:10;;;;;;;;;;;;;;;8.25;93.08;102861.09;4193933;28;20023;-68
2023/12/17 00:53:12;;;;;;;;;;;;;;;8.25;93.44;102869.16;4193020;28;20392;-68
2023/12/17 00:55:14;;;;;;;;;;;;;;;8.24;93.33;102861.19;4193180;28;20015;-68
2023/12/17 00:57:16;;;;;;;;;;;;;;;8.24;93.21;102867.44;4194443;28;20558;-68
2023/12/17 00:59:18;;;;;;;;;;;;;;;8.24;93.32;102871.97;4194409;28;20385;-68
2023/12/17 01:01:19;;;;;;;;;;;;;;;8.24;93.27;102862.03;4192256;28;20031;-68
2023/12/17 01:03:21;;;;;;;;;;;;;;;8.25;93.07;102857.53;4194485;28;20024;-69
2023/12/17 01:05:23;;;;;;;;;;;;;;;8.25;93.37;102866.47;4194526;28;19989;-69
2023/12/17 01:07:25;;;;;;;;;;;;;;;8.26;93.38;102861.94;4194553;28;20027;-69
2023/12/17 01:09:27;;;;;;;;;;;;;;;8.26;93.32;102883.47;4193565;28;20007;-68
2023/12/17 01:11:30;;;;;;;;;;;;;;;8.25;93.18;102887.16;4194026;28;20015;-68
2023/12/17 01:13:31;;;;;;;;;;;;;;;8.25;93.14;102885.31;4193205;28;20015;-68
2023/12/17 01:15:33;;;;;;;;;;;;;;;8.25;93.12;102890.69;4196217;28;20015;-68
2023/12/17 01:17:35;;;;;;;;;;;;;;;8.25;93.37;102889.84;4196355;28;20019;-68
2023/12/17 01:19:37;;;;;;;;;;;;;;;8.26;93.35;102889.72;4197839;28;20023;-68
2023/12/17 01:21:39;;;;;;;;;;;;;;;8.25;93.38;102893.38;4197393;28;20015;-68
2023/12/17 01:23:43;;;;;;;;;;;;;;;8.27;93.51;102890.59;4197138;28;20043;-68
2023/12/17 01:25:45;;;;;;;;;;;;;;;8.27;93.33;102902.19;4196236;28;20067;-68
2023/12/17 01:27:47;;;;;;;;;;;;;;;8.27;93.12;102901.34;4197253;28;20450;-68
2023/12/17 01:29:49;;;;;;;;;;;;;;;8.27;93.23;102909.44;4197502;28;20023;-68
2023/12/17 01:31:51;;;;;;;;;;;;;;;8.27;93.11;102912.97;4196880;28;20023;-69
2023/12/17 01:33:53;;;;;;;;;;;;;;;8.27;93.40;102910.28;4197007;28;20334;-68
2023/12/17 01:35:54;;;;;;;;;;;;;;;8.27;93.06;102912.13;4197007;28;20015;-68
2023/12/17 01:37:56;;;;;;;;;;;;;;;8.27;93.29;102904.91;4197366;28;19974;-68
2023/12/17 01:39:59;;;;;;;;;;;;;;;8.27;93.45;102899.50;4196771;28;20019;-68
2023/12/17 01:42:01;;;;;;;;;;;;;;;8.27;93.38;102902.19;4196112;28;20825;-69
2023/12/17 01:44:03;;;;;;;;;;;;;;;8.27;93.27;102893.28;4196028;28;20398;-68
2023/12/17 01:46:04;;;;;;;;;;;;;;;8.28;93.14;102887.78;4197319;28;20429;-68
2023/12/17 01:48:06;;;;;;;;;;;;;;;8.30;93.16;102891.22;4195632;28;19928;-68
2023/12/17 01:50:09;;;;;;;;;;;;;;;8.30;92.99;102891.22;4196117;28;19930;-68
2023/12/17 01:52:11;;;;;;;;;;;;;;;8.30;93.36;102899.28;4196840;28;20023;-68
2023/12/17 01:54:13;;;;;;;;;;;;;;;8.30;93.38;102901.13;4196835;28;20058;-68
2023/12/17 01:56:16;;;;;;;;;;;;;;;8.31;93.46;102900.19;4196624;28;20012;-68
2023/12/17 01:58:18;;;;;;;;;;;;;;;8.30;93.55;102910.06;4195623;28;20378;-68
2023/12/17 02:00:20;;;;;;;;;;;;;;;8.30;93.28;102915.44;4196746;28;20071;-68
2023/12/17 02:02:22;;;;;;;;;;;;;;;8.30;93.27;102909.22;4196708;28;20018;-68
2023/12/17 02:04:23;;;;;;;;;;;;;;;8.31;93.33;102905.56;4196633;28;20450;-68
2023/12/17 02:06:25;;;;;;;;;;;;;;;8.31;93.18;102910.94;4197488;28;19925;-68
2023/12/17 02:08:27;;;;;;;;;;;;;;;8.32;93.22;102909.09;4195536;28;20023;-68
2023/12/17 02:10:30;;;;;;;;;;;;;;;8.32;93.51;102920.72;4195481;28;20442;-68
2023/12/17 02:12:33;;;;;;;;;;;;;;;8.32;93.41;102917.19;4194302;28;20385;-68
2023/12/17 02:14:35;;;;;;;;;;;;;;;8.31;93.27;102913.63;4195683;28;20023;-68
2023/12/17 02:16:37;;;;;;;;;;;;;;;8.32;93.42;102906.41;4197198;28;20027;-68
2023/12/17 02:18:39;;;;;;;;;;;;;;;8.32;93.53;102906.41;4194187;28;20175;-68
2023/12/17 02:20:42;;;;;;;;;;;;;;;8.30;93.47;102899.28;4195083;28;20361;-68
2023/12/17 02:22:44;;;;;;;;;;;;;;;8.31;93.54;102902.88;4195996;28;20015;-68
2023/12/17 02:24:47;;;;;;;;;;;;;;;8.33;93.62;102908.16;4196873;28;20425;-68
2023/12/17 02:26:49;;;;;;;;;;;;;;;8.33;93.44;102909.00;4196038;28;19924;-68
2023/12/17 02:28:51;;;;;;;;;;;;;;;8.32;93.62;102909.09;4196025;28;20064;-68
2023/12/17 02:30:53;;;;;;;;;;;;;;;8.32;93.45;102919.88;4196968;28;20023;-68
2023/12/17 02:32:55;;;;;;;;;;;;;;;8.34;93.80;102928.69;4196857;28;20022;-68
2023/12/17 02:34:57;;;;;;;;;;;;;;;8.34;93.68;102926.00;4196451;28;20007;-68
2023/12/17 02:36:59;;;;;;;;;;;;;;;8.34;93.50;102920.63;4196057;28;20035;-68
2023/12/17 02:39:01;;;;;;;;;;;;;;;8.35;93.67;102916.97;4195547;28;20386;-68
2023/12/17 02:41:05;;;;;;;;;;;;;;;8.35;93.76;102923.19;4196455;28;20023;-68
2023/12/17 02:43:06;;;;;;;;;;;;;;;8.34;93.77;102910.72;4194843;28;20012;-68
2023/12/17 02:45:08;;;;;;;;;;;;;;;8.36;93.64;102926.78;4196077;28;19928;-68
2023/12/17 02:47:10;;;;;;;;;;;;;;;8.36;93.77;102922.25;4195915;28;19924;-68
2023/12/17 02:49:13;;;;;;;;;;;;;;;8.34;93.50;102910.72;4195985;28;20016;-68
2023/12/17 02:51:15;;;;;;;;;;;;;;;8.35;93.49;102917.81;4195129;28;20027;-68
2023/12/17 02:53:17;;;;;;;;;;;;;;;8.35;93.77;102917.81;4193701;28;20377;-68
2023/12/17 02:55:19;;;;;;;;;;;;;;;8.35;93.62;102912.44;4195672;28;20015;-68
2023/12/17 02:57:24;;;;;;;;;;;;;;;8.36;93.61;102902.53;4196179;28;20018;-68
2023/12/17 02:59:26;;;;;;;;;;;;;;;8.36;93.73;102903.41;4196432;28;20027;-68
2023/12/17 03:01:28;;;;;;;;;;;;;;;8.37;93.63;102891.66;4196186;28;20010;-68
2023/12/17 03:03:30;;;;;;;;;;;;;;;8.37;93.51;102888.97;4196535;28;20015;-68
2023/12/17 03:05:32;;;;;;;;;;;;;;;8.38;93.67;102890.69;4194574;28;20046;-68
2023/12/17 03:07:34;;;;;;;;;;;;;;;8.38;93.63;102889.81;4195228;28;20007;-68
2023/12/17 03:09:36;;;;;;;;;;;;;;;8.37;93.60;102888.97;4195677;28;20044;-68
2023/12/17 03:11:37;;;;;;;;;;;;;;;8.38;93.58;102898.75;4195716;28;20023;-68
2023/12/17 03:13:40;;;;;;;;;;;;;;;8.39;93.68;102896.94;4194351;28;19974;-68
2023/12/17 03:15:43;;;;;;;;;;;;;;;8.39;93.68;102887.03;4193585;28;20019;-68
2023/12/17 03:17:45;;;;;;;;;;;;;;;8.39;93.57;102892.41;4195610;28;20044;-68
2023/12/17 03:19:47;;;;;;;;;;;;;;;8.38;93.89;102890.69;4194372;28;20015;-68
2023/12/17 03:21:49;;;;;;;;;;;;;;;8.39;93.91;102880.78;4193626;28;20011;-68
2023/12/17 03:23:51;;;;;;;;;;;;;;;8.39;93.75;102889.72;4195656;28;20023;-68
2023/12/17 03:25:54;;;;;;;;;;;;;;;8.38;93.70;102877.22;4196226;28;20346;-68
2023/12/17 03:27:56;;;;;;;;;;;;;;;8.39;93.72;102878.94;4195322;28;19925;-68
2023/12/17 03:29:59;;;;;;;;;;;;;;;8.39;93.84;102881.63;4194307;28;20035;-69
2023/12/17 03:32:02;;;;;;;;;;;;;;;8.40;93.83;102901.34;4195851;28;20679;-68
2023/12/17 03:34:04;;;;;;;;;;;;;;;8.40;94.05;102886.06;4195814;28;20469;-68
2023/12/17 03:36:07;;;;;;;;;;;;;;;8.40;93.68;102886.06;4195037;28;20011;-68
2023/12/17 03:38:09;;;;;;;;;;;;;;;8.40;93.67;102883.38;4193363;28;20028;-68
2023/12/17 03:40:11;;;;;;;;;;;;;;;8.41;93.62;102885.06;4195201;28;20011;-68
2023/12/17 03:42:13;;;;;;;;;;;;;;;8.41;93.71;102884.22;4194119;28;20027;-68
2023/12/17 03:44:15;;;;;;;;;;;;;;;8.41;93.96;102882.38;4194302;28;20019;-68
2023/12/17 03:46:18;;;;;;;;;;;;;;;8.41;93.94;102886.91;4193685;28;20019;-68
2023/12/17 03:48:19;;;;;;;;;;;;;;;8.41;93.69;102882.38;4194778;28;19951;-68
2023/12/17 03:50:21;;;;;;;;;;;;;;;8.44;93.71;102884.03;4194195;28;20023;-68
2023/12/17 03:52:23;;;;;;;;;;;;;;;8.43;93.70;102882.25;4194762;28;20066;-68
2023/12/17 03:54:25;;;;;;;;;;;;;;;8.43;93.60;102877.78;4194463;28;20031;-69
2023/12/17 03:56:27;;;;;;;;;;;;;;;8.44;93.57;102875.94;4195492;28;20043;-69
2023/12/17 03:58:30;;;;;;;;;;;;;;;8.43;93.81;102875.09;4195069;28;20641;-68
2023/12/17 04:00:32;;;;;;;;;;;;;;;8.43;93.87;102879.56;4195019;28;20362;-68
2023/12/17 04:02:36;;;;;;;;;;;;;;;8.44;93.86;102879.50;4192668;28;20015;-68
2023/12/17 04:04:38;;;;;;;;;;;;;;;8.43;93.90;102875.09;4195029;28;20016;-68
2023/12/17 04:06:40;;;;;;;;;;;;;;;8.43;93.97;102874.19;4195068;28;20019;-68
2023/12/17 04:08:42;;;;;;;;;;;;;;;8.44;93.78;102878.66;4194680;28;20402;-68
2023/12/17 04:10:44;;;;;;;;;;;;;;;8.43;94.12;102877.78;4194311;28;20031;-68
2023/12/17 04:12:46;;;;;;;;;;;;;;;8.44;94.11;102878.66;4194222;28;20019;-68
2023/12/17 04:14:47;;;;;;;;;;;;;;;8.43;93.85;102880.50;4193385;28;20024;-68
2023/12/17 04:16:49;;;;;;;;;;;;;;;8.45;93.95;102877.69;4194631;28;19928;-68
2023/12/17 04:18:53;;;;;;;;;;;;;;;8.43;94.18;102875.09;4194607;28;20015;-68
2023/12/17 04:20:55;;;;;;;;;;;;;;;8.44;93.98;102875.94;4194013;28;20453;-68
2023/12/17 04:22:56;;;;;;;;;;;;;;;8.44;93.93;102884.88;4194417;28;20027;-68
2023/12/17 04:24:58;;;;;;;;;;;;;;;8.45;94.13;102885.75;4194380;28;20023;-68
2023/12/17 04:27:00;;;;;;;;;;;;;;;8.43;94.14;102883.19;4194743;28;20023;-68
2023/12/17 04:29:01;;;;;;;;;;;;;;;8.44;94.07;102884.03;4194438;28;20497;-68
2023/12/17 04:31:03;;;;;;;;;;;;;;;8.45;94.00;102883.91;4194511;28;19925;-68
2023/12/17 04:33:05;;;;;;;;;;;;;;;8.44;93.85;102886.72;4194426;28;20430;-68
2023/12/17 04:35:08;;;;;;;;;;;;;;;8.45;93.80;102880.38;4193644;28;20672;-68
2023/12/17 04:37:10;;;;;;;;;;;;;;;8.44;94.14;102876.81;4195061;28;20030;-67
2023/12/17 04:39:12;;;;;;;;;;;;;;;8.45;94.12;102872.31;4194651;28;20453;-68
2023/12/17 04:41:14;;;;;;;;;;;;;;;8.46;94.05;102871.31;4193938;28;20011;-68
2023/12/17 04:43:16;;;;;;;;;;;;;;;8.45;93.93;102869.59;4193657;28;20434;-68
2023/12/17 04:45:17;;;;;;;;;;;;;;;8.44;93.97;102873.25;4194333;28;20857;-67
2023/12/17 04:47:19;;;;;;;;;;;;;;;8.45;94.13;102870.47;4194841;28;19937;-67
2023/12/17 04:49:21;;;;;;;;;;;;;;;8.45;94.06;102867.75;4193715;28;20028;-67
2023/12/17 04:51:24;;;;;;;;;;;;;;;8.44;94.18;102876.81;4193019;28;20015;-67
2023/12/17 04:53:26;;;;;;;;;;;;;;;8.44;94.01;102871.41;4193622;28;20019;-67
2023/12/17 04:55:28;;;;;;;;;;;;;;;8.44;94.05;102862.50;4194467;28;20015;-67
2023/12/17 04:57:29;;;;;;;;;;;;;;;8.45;94.15;102873.16;4193022;28;20019;-68
2023/12/17 04:59:33;;;;;;;;;;;;;;;8.45;93.87;102875.84;4193653;28;20440;-67
2023/12/17 05:01:35;;;;;;;;;;;;;;;8.45;93.84;102875.00;4193890;28;20019;-68
2023/12/17 05:03:38;;;;;;;;;;;;;;;8.44;93.81;102879.50;4193753;28;20027;-67
2023/12/17 05:05:40;;;;;;;;;;;;;;;8.45;94.15;102872.31;4193654;28;20027;-68
2023/12/17 05:07:42;;;;;;;;;;;;;;;8.46;94.06;102876.69;4194407;28;20123;-68
2023/12/17 05:09:44;;;;;;;;;;;;;;;8.45;93.92;102866.91;4193793;28;19928;-68
2023/12/17 05:11:46;;;;;;;;;;;;;;;8.44;94.02;102879.50;4194068;28;20007;-68
2023/12/17 05:13:48;;;;;;;;;;;;;;;8.45;94.13;102875.84;4192099;28;20016;-68
2023/12/17 05:15:50;;;;;;;;;;;;;;;8.45;93.93;102875.00;4192482;28;20402;-68
2023/12/17 05:17:52;;;;;;;;;;;;;;;8.45;94.11;102869.59;4194358;28;20406;-68
2023/12/17 05:19:54;;;;;;;;;;;;;;;8.44;94.15;102863.34;4192707;28;20023;-68
2023/12/17 05:21:55;;;;;;;;;;;;;;;8.45;94.25;102867.75;4193054;28;20454;-68
2023/12/17 05:23:58;;;;;;;;;;;;;;;8.45;93.90;102869.59;4194040;28;19935;-68
2023/12/17 05:25:59;;;;;;;;;;;;;;;8.46;94.02;102868.63;4193546;28;20011;-68
2023/12/17 05:28:01;;;;;;;;;;;;;;;8.46;94.23;102856.03;4193106;28;20032;-68
2023/12/17 05:30:03;;;;;;;;;;;;;;;8.46;94.37;102865.91;4192850;28;19935;-68
2023/12/17 05:32:05;;;;;;;;;;;;;;;8.46;94.20;102860.53;4193642;28;20018;-68
2023/12/17 05:34:08;;;;;;;;;;;;;;;8.46;94.31;102855.16;4194131;28;20059;-68
2023/12/17 05:36:10;;;;;;;;;;;;;;;8.46;94.45;102864.09;4194331;28;20032;-68
2023/12/17 05:38:12;;;;;;;;;;;;;;;8.45;94.39;102873.16;4193701;28;20023;-68
2023/12/17 05:40:15;;;;;;;;;;;;;;;8.45;94.22;102870.47;4193654;28;20707;-68
2023/12/17 05:42:17;;;;;;;;;;;;;;;8.45;94.15;102869.59;4192840;28;20011;-68
2023/12/17 05:44:19;;;;;;;;;;;;;;;8.45;94.44;102869.59;4193010;28;20015;-68
2023/12/17 05:46:20;;;;;;;;;;;;;;;8.45;94.27;102872.31;4193274;28;20028;-68
2023/12/17 05:48:22;;;;;;;;;;;;;;;8.45;94.42;102867.75;4194368;28;20016;-68
2023/12/17 05:50:24;;;;;;;;;;;;;;;8.46;94.33;102866.81;4193845;28;19963;-68
2023/12/17 05:52:26;;;;;;;;;;;;;;;8.47;94.08;102873.03;4193208;28;20011;-68
2023/12/17 05:54:31;;;;;;;;;;;;;;;8.47;94.21;102873.03;4193037;28;19939;-68
2023/12/17 05:56:40;;;;;;;;;;;;;;;8.47;94.25;102881.13;4193961;28;20024;-68
2023/12/17 05:58:43;;;;;;;;;;;;;;;8.47;94.01;102884.66;4193451;28;20014;-68
2023/12/17 06:00:45;;;;;;;;;;;;;;;8.48;94.22;102874.78;4191783;28;20027;-68
2023/12/17 06:02:47;;;;;;;;;;;;;;;8.43;94.11;102872.41;4196145;28;20015;-68
2023/12/17 06:04:49;;;;;;;;;;;;;;;8.47;94.08;102875.72;4197098;28;20031;-68
2023/12/17 06:06:51;;;;;;;;;;;;;;;8.48;94.30;102867.53;4196637;28;20028;-68
2023/12/17 06:08:53;;;;;;;;;;;;;;;8.49;94.32;102881.84;4195125;28;20019;-68
2023/12/17 06:10:54;;;;;;;;;;;;;;;8.50;94.19;102871.97;4196658;28;19924;-68
2023/12/17 06:12:57;;;;;;;;;;;;;;;8.48;94.26;102870.22;4196244;28;19982;-68
2023/12/17 06:14:59;;;;;;;;;;;;;;;8.47;94.47;102863.13;4195986;28;20370;-68
2023/12/17 06:17:01;;;;;;;;;;;;;;;8.50;94.23;102874.66;4196251;28;20012;-68
2023/12/17 06:19:03;;;;;;;;;;;;;;;8.50;94.10;102871.97;4196168;28;20030;-68
2023/12/17 06:21:05;;;;;;;;;;;;;;;8.50;94.34;102878.22;4196570;28;20023;-68
2023/12/17 06:23:09;;;;;;;;;;;;;;;8.51;94.03;102868.28;4196337;28;20027;-68
2023/12/17 06:25:11;;;;;;;;;;;;;;;8.50;94.42;102870.13;4196829;28;20031;-68
2023/12/17 06:27:16;;;;;;;;;;;;;;;8.51;94.38;102882.63;4196415;28;20445;-68
2023/12/17 06:29:19;;;;;;;;;;;;;;;8.52;94.28;102861.94;4196739;28;20011;-68
2023/12/17 06:31:21;;;;;;;;;;;;;;;8.52;94.46;102875.41;4195315;28;19928;-68
2023/12/17 06:33:23;;;;;;;;;;;;;;;8.51;94.15;102865.59;4196332;28;20019;-68
2023/12/17 06:35:25;;;;;;;;;;;;;;;8.51;94.53;102871.84;4196713;28;20011;-68
2023/12/17 06:37:26;;;;;;;;;;;;;;;8.51;94.42;102870.97;4196474;28;20014;-68
2023/12/17 06:39:28;;;;;;;;;;;;;;;8.50;94.21;102875.50;4196291;28;20584;-68
2023/12/17 06:41:30;;;;;;;;;;;;;;;8.51;94.42;102876.38;4193292;28;20034;-68
2023/12/17 06:43:32;;;;;;;;;;;;;;;8.51;94.12;102876.38;4194908;28;20039;-68
2023/12/17 06:45:36;;;;;;;;;;;;;;;8.50;94.49;102888.97;4194798;28;20024;-68
2023/12/17 06:47:38;;;;;;;;;;;;;;;8.51;94.18;102879.06;4196304;28;20024;-67
2023/12/17 06:49:39;;;;;;;;;;;;;;;8.51;94.29;102885.31;4194940;28;20019;-67
2023/12/17 06:51:40;;;;;;;;;;;;;;;8.50;94.10;102891.66;4197229;28;20520;-68
2023/12/17 06:53:43;;;;;;;;;;;;;;;8.51;94.13;102904.19;4196148;28;20015;-68
2023/12/17 06:55:45;;;;;;;;;;;;;;;8.52;94.31;102900.50;4196624;28;20023;-68
2023/12/17 06:57:47;;;;;;;;;;;;;;;8.52;94.23;102905.03;4195601;28;20015;-68
2023/12/17 06:59:48;;;;;;;;;;;;;;;8.51;94.11;102893.41;4195886;28;20040;-68
2023/12/17 07:01:52;;;;;;;;;;;;;;;8.52;94.14;102899.63;4196204;28;19928;-69
2023/12/17 07:03:53;;;;;;;;;;;;;;;8.52;94.03;102897.78;4194600;28;20023;-70
2023/12/17 07:05:55;;;;;;;;;;;;;;;8.52;94.15;102905.88;4195018;28;20013;-68
2023/12/17 07:07:57;;;;;;;;;;;;;;;8.53;94.31;102890.59;4195751;28;20019;-69
2023/12/17 07:09:58;;;;;;;;;;;;;;;8.54;93.99;102895.00;4195408;28;20031;-69
2023/12/17 07:12:00;;;;;;;;;;;;;;;8.53;94.22;102888.75;4193893;28;20034;-68
2023/12/17 07:14:02;;;;;;;;;;;;;;;8.53;94.36;102883.38;4193699;28;20111;-68
2023/12/17 07:16:05;;;;;;;;;;;;;;;8.54;94.13;102903.06;4194348;28;20378;-69
2023/12/17 07:18:08;;;;;;;;;;;;;;;8.53;94.01;102894.16;4193002;28;20024;-68
2023/12/17 07:20:10;;;;;;;;;;;;;;;8.55;94.19;102896.72;4195133;28;20424;-69
2023/12/17 07:22:12;;;;;;;;;;;;;;;8.53;93.93;102894.16;4195063;28;20027;-68
2023/12/17 07:24:14;;;;;;;;;;;;;;;8.53;93.99;102894.16;4195693;28;20805;-69
2023/12/17 07:26:16;;;;;;;;;;;;;;;8.54;94.20;102881.53;4195304;28;20365;-69
2023/12/17 07:28:18;;;;;;;;;;;;;;;8.54;94.23;102884.22;4195174;28;20019;-68
2023/12/17 07:30:20;;;;;;;;;;;;;;;8.54;94.06;102882.41;4194386;28;20019;-67
2023/12/17 07:32:21;;;;;;;;;;;;;;;8.55;93.83;102878.72;4193467;28;20012;-68
2023/12/17 07:34:25;;;;;;;;;;;;;;;8.51;94.02;102866.47;4195456;28;19924;-68
2023/12/17 07:36:27;;;;;;;;;;;;;;;8.54;93.86;102871.63;4194802;28;20015;-68
2023/12/17 07:38:29;;;;;;;;;;;;;;;8.56;93.83;102871.53;4193708;28;20010;-69
2023/12/17 07:40:30;;;;;;;;;;;;;;;8.58;93.77;102880.34;4194735;28;20619;-68
2023/12/17 07:42:32;;;;;;;;;;;;;;;8.55;93.79;102878.72;4193209;28;19993;-68
2023/12/17 07:44:34;;;;;;;;;;;;;;;8.55;93.73;102876.03;4192076;28;20048;-69
2023/12/17 07:46:36;;;;;;;;;;;;;;;8.57;93.83;102898.31;4195124;28;20033;-68
2023/12/17 07:48:38;;;;;;;;;;;;;;;8.56;93.70;102901.16;4194125;28;20027;-69
2023/12/17 07:50:42;;;;;;;;;;;;;;;8.55;93.91;102897.56;4194482;28;20019;-68
2023/12/17 07:52:44;;;;;;;;;;;;;;;8.56;93.76;102898.47;4194424;28;19967;-69
2023/12/17 07:54:46;;;;;;;;;;;;;;;8.57;93.61;102892.09;4192917;28;20008;-68
2023/12/17 07:56:48;;;;;;;;;;;;;;;8.56;94.00;102896.63;4193301;28;20856;-68
2023/12/17 07:58:50;;;;;;;;;;;;;;;8.56;93.68;102898.47;4190251;28;20473;-69
2023/12/17 08:00:52;;;;;;;;;;;;;;;8.56;93.81;102896.63;4193025;28;20030;-68
2023/12/17 08:02:54;;;;;;;;;;;;;;;8.57;93.95;102905.53;4192219;28;20012;-69
2023/12/17 08:04:56;;;;;;;;;;;;;;;8.58;93.73;102901.91;4189911;28;20022;-68
2023/12/17 08:06:59;;;;;;;;;;;;;;;8.59;93.56;102904.47;4194373;28;20481;-68
2023/12/17 08:09:01;;;;;;;;;;;;;;;8.58;93.67;102910.81;4193488;28;19960;-68
2023/12/17 08:11:03;;;;;;;;;;;;;;;8.59;93.57;102914.38;4192497;28;20023;-68
2023/12/17 08:13:04;;;;;;;;;;;;;;;8.59;93.70;102909.88;4191471;28;20359;-69
2023/12/17 08:15:07;;;;;;;;;;;;;;;8.59;93.68;102904.47;4194095;28;19928;-69
2023/12/17 08:17:08;;;;;;;;;;;;;;;8.60;93.66;102908.03;4193711;28;20421;-68
2023/12/17 08:19:10;;;;;;;;;;;;;;;8.60;93.51;102897.25;4193692;28;19928;-69
2023/12/17 08:21:12;;;;;;;;;;;;;;;8.60;93.39;102906.19;4191931;28;20019;-69
2023/12/17 08:23:16;;;;;;;;;;;;;;;8.60;93.50;102886.47;4192078;28;20023;-69
2023/12/17 08:25:18;;;;;;;;;;;;;;;8.61;93.48;102896.28;4193195;28;20012;-68
2023/12/17 08:27:20;;;;;;;;;;;;;;;8.60;93.32;102903.47;4193661;28;20019;-68
2023/12/17 08:29:22;;;;;;;;;;;;;;;8.60;93.32;102906.19;4192088;28;20480;-70
2023/12/17 08:31:24;;;;;;;;;;;;;;;8.61;93.50;102910.59;4194464;28;20019;-69
2023/12/17 08:33:26;;;;;;;;;;;;;;;8.61;93.76;102907.91;4194561;28;19963;-70
2023/12/17 08:35:31;;;;;;;;;;;;;;;8.60;93.65;102900.78;4194569;28;20059;-69
2023/12/17 08:37:33;;;;;;;;;;;;;;;8.61;93.54;102907.06;4193877;28;20031;-70
2023/12/17 08:39:36;;;;;;;;;;;;;;;8.61;93.33;102907.91;4193916;28;20712;-69
2023/12/17 08:41:38;;;;;;;;;;;;;;;8.60;93.41;102906.19;4192019;28;20353;-69
2023/12/17 08:43:40;;;;;;;;;;;;;;;8.60;93.47;102897.25;4193641;28;20357;-69
2023/12/17 08:45:42;;;;;;;;;;;;;;;8.60;93.30;102892.72;4192494;28;20043;-70
2023/12/17 08:47:44;;;;;;;;;;;;;;;8.61;93.47;102902.53;4193914;28;20044;-70
2023/12/17 08:49:56;;;;;;;;;;;;;;;8.61;93.57;102904.38;4194067;28;19928;-71
2023/12/17 08:52:00;;;;;;;;;;;;;;;8.60;93.39;102900.78;4191987;28;20565;-69
2023/12/17 08:54:02;;;;;;;;;;;;;;;8.62;93.17;102903.38;4194096;28;19969;-70
2023/12/17 08:56:11;;;;;;;;;;;;;;;8.61;93.36;102904.38;4192524;28;20362;-70
2023/12/17 08:58:16;;;;;;;;;;;;;;;8.61;93.13;102899.81;4193248;28;20032;-70
2023/12/17 09:00:19;;;;;;;;;;;;;;;8.62;93.45;102892.59;4191778;28;20401;-69
2023/12/17 09:02:24;;;;;;;;;;;;;;;8.64;93.12;102890.69;4191697;28;19925;-69
2023/12/17 09:04:27;;;;;;;;;;;;;;;8.63;93.30;102905.97;4192710;28;20019;-69
2023/12/17 09:06:32;;;;;;;;;;;;;;;8.63;93.38;102908.66;4193188;28;19932;-71
2023/12/17 09:08:37;;;;;;;;;;;;;;;8.63;93.24;102907.81;4192064;28;20047;-69
2023/12/17 09:10:42;;;;;;;;;;;;;;;8.63;93.24;102915.88;4190740;28;20466;-69
2023/12/17 09:12:54;;;;;;;;;;;;;;;8.63;92.98;102922.13;4192961;28;20035;-69
2023/12/17 09:15:05;;;;;;;;;;;;;;;8.63;93.25;102926.66;4192629;28;19971;-68
2023/12/17 09:17:07;;;;;;;;;;;;;;;8.64;92.92;102918.47;4193395;28;20023;-69
2023/12/17 09:19:12;;;;;;;;;;;;;;;8.65;92.95;102919.31;4193267;28;20019;-69
2023/12/17 09:21:15;;;;;;;;;;;;;;;8.64;93.07;102923.00;4192722;28;20016;-69
2023/12/17 09:23:17;;;;;;;;;;;;;;;8.66;93.14;102904.88;4192892;28;19974;-70
2023/12/17 09:25:19;;;;;;;;;;;;;;;8.65;92.78;102904.03;4193408;28;20055;-71
2023/12/17 09:27:20;;;;;;;;;;;;;;;8.65;92.97;102909.41;4193428;28;20011;-70
2023/12/17 09:29:23;;;;;;;;;;;;;;;8.66;93.00;102902.19;4192856;28;20284;-70
2023/12/17 09:31:26;;;;;;;;;;;;;;;8.66;93.04;102888.72;4193335;28;20008;-68
2023/12/17 09:33:28;;;;;;;;;;;;;;;8.66;92.69;102888.72;4191499;28;20040;-69
2023/12/17 09:35:30;;;;;;;;;;;;;;;8.66;92.67;102899.50;4192841;28;19936;-69
2023/12/17 09:37:32;;;;;;;;;;;;;;;8.67;92.63;102914.69;4196322;28;20433;-69
2023/12/17 09:39:34;;;;;;;;;;;;;;;8.66;92.89;102916.50;4196953;28;20028;-69
2023/12/17 09:41:36;;;;;;;;;;;;;;;8.66;92.77;102915.66;4195497;28;20023;-70
2023/12/17 09:43:38;;;;;;;;;;;;;;;8.66;92.98;102927.28;4195457;28;20035;-69
2023/12/17 09:45:42;;;;;;;;;;;;;;;8.68;92.70;102923.63;4195629;28;20376;-69
2023/12/17 09:47:44;;;;;;;;;;;;;;;8.68;92.57;102916.41;4195751;28;20031;-70
2023/12/17 09:49:46;;;;;;;;;;;;;;;8.69;92.67;102903.81;4195734;28;20022;-69
2023/12/17 09:51:48;;;;;;;;;;;;;;;8.68;92.52;102919.09;4195947;28;20591;-70
2023/12/17 09:53:50;;;;;;;;;;;;;;;8.71;92.82;102923.41;4194861;28;20452;-69
2023/12/17 09:55:51;;;;;;;;;;;;;;;8.70;92.36;102913.59;4196008;28;20824;-70
2023/12/17 09:57:53;;;;;;;;;;;;;;;8.71;92.55;102901.84;4196466;28;20371;-70
2023/12/17 09:59:54;;;;;;;;;;;;;;;8.71;92.30;102894.63;4195127;28;20023;-70
2023/12/17 10:01:58;;;;;;;;;;;;;;;8.70;92.55;102894.75;4193288;28;20023;-71
2023/12/17 10:03:59;;;;;;;;;;;;;;;8.71;92.47;102886.53;4194593;28;20019;-70
2023/12/17 10:06:02;;;;;;;;;;;;;;;8.72;92.40;102882.88;4196214;28;20047;-70
2023/12/17 10:08:04;;;;;;;;;;;;;;;8.72;92.31;102880.19;4196368;28;20060;-70
2023/12/17 10:10:07;;;;;;;;;;;;;;;8.73;92.01;102875.66;4195192;28;20016;-71
2023/12/17 10:12:09;;;;;;;;;;;;;;;8.72;92.09;102872.09;4191261;28;20019;-70
2023/12/17 10:14:19;;;;;;;;;;;;;;;8.73;92.28;102875.66;4194212;28;20019;-70
2023/12/17 10:16:22;;;;;;;;;;;;;;;8.73;92.08;102876.53;4194862;28;19931;-70
2023/12/17 10:18:26;;;;;;;;;;;;;;;8.73;92.25;102876.53;4195651;28;20015;-71
2023/12/17 10:20:28;;;;;;;;;;;;;;;8.74;92.21;102869.31;4195801;28;19987;-70
2023/12/17 10:22:30;;;;;;;;;;;;;;;8.74;91.93;102872.00;4189474;28;20011;-69
2023/12/17 10:24:35;;;;;;;;;;;;;;;8.73;92.11;102859.50;4195763;28;20020;-71
2023/12/17 10:26:44;;;;;;;;;;;;;;;8.74;92.11;102859.38;4196102;28;20027;-72
2023/12/17 10:28:46;;;;;;;;;;;;;;;8.74;91.99;102859.38;4195976;28;20146;-71
2023/12/17 10:30:48;;;;;;;;;;;;;;;8.75;91.86;102861.09;4194587;28;19984;-70
2023/12/17 10:32:49;;;;;;;;;;;;;;;8.76;91.78;102867.34;4193728;28;20027;-69
2023/12/17 10:34:53;;;;;;;;;;;;;;;8.76;91.72;102846.69;4194490;28;19978;-70
2023/12/17 10:36:55;;;;;;;;;;;;;;;8.77;91.78;102851.06;4195050;28;19962;-70